createdAt,value
2018-03-20T00:01:52.978Z,-0.74
2018-03-20T00:04:20.369Z,-0.83
2018-03-20T00:06:47.762Z,-0.93
2018-03-20T00:09:15.534Z,-0.95
2018-03-20T00:11:42.931Z,-1.02
2018-03-20T00:14:10.330Z,-1.02
2018-03-20T00:16:37.729Z,-0.99
2018-03-20T00:19:05.127Z,-1.03
2018-03-20T00:21:32.538Z,-0.96
2018-03-20T00:23:59.939Z,-1.00
2018-03-20T00:26:27.347Z,-1.04
2018-03-20T00:28:54.742Z,-1.14
2018-03-20T00:31:22.139Z,-1.20
2018-03-20T00:33:49.543Z,-1.16
2018-03-20T00:36:16.940Z,-1.15
2018-03-20T00:38:44.335Z,-1.19
2018-03-20T00:41:11.746Z,-1.19
2018-03-20T00:43:39.146Z,-1.13
2018-03-20T00:46:06.562Z,-1.13
2018-03-20T00:48:33.954Z,-1.13
2018-03-20T00:51:01.353Z,-1.12
2018-03-20T00:53:28.750Z,-1.15
2018-03-20T00:55:56.146Z,-1.20
2018-03-20T00:58:23.553Z,-1.22
2018-03-20T01:00:50.955Z,-1.19
2018-03-20T01:03:18.342Z,-1.17
2018-03-20T01:05:45.743Z,-1.17
2018-03-20T01:08:13.141Z,-1.23
2018-03-20T01:10:40.547Z,-1.18
2018-03-20T01:13:07.945Z,-1.18
2018-03-20T01:15:35.337Z,-1.18
2018-03-20T01:18:02.733Z,-1.23
2018-03-20T01:20:30.134Z,-1.25
2018-03-20T01:22:57.546Z,-1.28
2018-03-20T01:25:24.937Z,-1.31
2018-03-20T01:27:52.337Z,-1.38
2018-03-20T01:44:47.854Z,-1.59
2018-03-20T01:47:15.262Z,-1.61
2018-03-20T01:49:42.658Z,-1.68
2018-03-20T01:52:10.622Z,-1.72
2018-03-20T01:54:38.017Z,-1.80
2018-03-20T01:57:05.421Z,-1.74
2018-03-20T01:59:32.835Z,-1.76
2018-03-20T02:02:00.243Z,-1.80
2018-03-20T02:04:27.630Z,-1.83
2018-03-20T02:06:55.029Z,-1.83
2018-03-20T02:09:22.451Z,-1.89
2018-03-20T02:11:49.855Z,-1.93
2018-03-20T02:14:17.302Z,-1.92
2018-03-20T02:16:44.670Z,-2.01
2018-03-20T02:19:12.078Z,-2.02
2018-03-20T02:21:39.477Z,-2.17
2018-03-20T02:24:06.889Z,-2.28
2018-03-20T02:26:34.273Z,-2.33
2018-03-20T02:29:01.677Z,-2.37
2018-03-20T02:31:29.074Z,-2.34
2018-03-20T02:33:56.481Z,-2.40
2018-03-20T02:36:23.869Z,-2.27
2018-03-20T02:38:51.274Z,-2.16
2018-03-20T02:41:18.671Z,-2.14
2018-03-20T02:43:46.070Z,-2.09
2018-03-20T02:46:14.050Z,-2.11
2018-03-20T02:48:41.455Z,-2.10
2018-03-20T02:51:08.874Z,-2.10
2018-03-20T02:53:36.277Z,-2.04
2018-03-20T02:56:03.662Z,-2.01
2018-03-20T02:58:31.118Z,-1.88
2018-03-20T03:00:58.549Z,-1.77
2018-03-20T03:03:25.939Z,-1.64
2018-03-20T03:05:53.422Z,-1.52
2018-03-20T03:08:20.824Z,-1.44
2018-03-20T03:10:48.213Z,-1.34
2018-03-20T03:13:15.613Z,-1.32
2018-03-20T03:15:43.020Z,-1.27
2018-03-20T03:18:10.411Z,-1.04
2018-03-20T03:20:37.808Z,-0.96
2018-03-20T03:23:05.204Z,-0.80
2018-03-20T03:25:32.601Z,-0.75
2018-03-20T03:28:00.181Z,-0.75
2018-03-20T03:30:27.599Z,-0.59
2018-03-20T03:32:54.988Z,-0.59
2018-03-20T03:35:22.389Z,-0.40
2018-03-20T03:37:49.785Z,-0.31
2018-03-20T03:40:17.181Z,-0.28
2018-03-20T03:42:44.583Z,-0.35
2018-03-20T03:45:11.979Z,-0.34
2018-03-20T03:47:39.374Z,-0.35
2018-03-20T03:50:06.766Z,-0.41
2018-03-20T03:52:34.165Z,-0.58
2018-03-20T03:55:01.579Z,-0.63
2018-03-20T03:57:28.978Z,-0.67
2018-03-20T03:59:56.379Z,-0.89
2018-03-20T04:02:23.782Z,-0.90
2018-03-20T04:04:51.185Z,-0.83
2018-03-20T04:07:18.587Z,-0.74
2018-03-20T04:09:45.982Z,-0.64
2018-03-20T04:12:13.386Z,-0.55
2018-03-20T04:14:40.780Z,-0.47
2018-03-20T04:17:08.186Z,-0.42
2018-03-20T04:19:35.586Z,-0.36
2018-03-20T04:22:02.979Z,-0.38
2018-03-20T04:24:30.390Z,-0.53
2018-03-20T04:26:57.781Z,-0.51
2018-03-20T04:29:25.181Z,-0.42
2018-03-20T04:31:52.594Z,-0.40
2018-03-20T04:34:20.001Z,-0.33
2018-03-20T04:36:47.394Z,-0.27
2018-03-20T04:39:14.798Z,-0.21
2018-03-20T04:41:42.194Z,-0.11
2018-03-20T04:44:09.607Z,-0.01
2018-03-20T04:46:36.998Z,0.14
2018-03-20T04:49:04.393Z,0.24
2018-03-20T04:51:31.801Z,0.25
2018-03-20T04:53:59.201Z,0.30
2018-03-20T04:56:26.594Z,0.39
2018-03-20T04:58:54.034Z,0.41
2018-03-20T05:01:21.441Z,0.39
2018-03-20T05:03:48.818Z,0.45
2018-03-20T05:06:16.222Z,0.44
2018-03-20T05:08:43.613Z,0.41
2018-03-20T05:11:11.009Z,0.47
2018-03-20T05:13:38.407Z,0.47
2018-03-20T05:16:05.831Z,0.34
2018-03-20T05:18:33.208Z,0.16
2018-03-20T05:21:06.217Z,0.17
2018-03-20T05:23:39.295Z,0.09
2018-03-20T05:26:06.704Z,0.01
2018-03-20T05:28:34.099Z,-0.17
2018-03-20T05:31:01.517Z,-0.09
2018-03-20T05:33:28.906Z,-0.03
2018-03-20T05:35:56.299Z,-0.06
2018-03-20T05:38:23.741Z,-0.08
2018-03-20T05:40:51.104Z,-0.20
2018-03-20T05:43:18.505Z,-0.21
2018-03-20T05:45:45.897Z,-0.23
2018-03-20T05:51:38.863Z,-0.29
2018-03-20T05:54:06.284Z,-0.22
2018-03-20T05:56:33.682Z,-0.33
2018-03-20T05:59:01.081Z,-0.21
2018-03-20T06:01:28.522Z,-0.23
2018-03-20T06:03:55.913Z,-0.20
2018-03-20T06:06:23.313Z,-0.14
2018-03-20T06:08:50.713Z,-0.16
2018-03-20T06:11:18.109Z,-0.07
2018-03-20T06:13:45.518Z,-0.14
2018-03-20T06:16:12.914Z,-0.08
2018-03-20T06:18:40.367Z,-0.28
2018-03-20T06:21:07.752Z,-0.16
2018-03-20T06:23:35.149Z,-0.35
2018-03-20T06:26:02.559Z,-0.29
2018-03-20T06:28:29.961Z,-0.21
2018-03-20T06:30:57.358Z,-0.16
2018-03-20T06:33:24.749Z,-0.05
2018-03-20T06:35:52.171Z,-0.04
2018-03-20T06:38:19.565Z,-0.08
2018-03-20T06:40:46.970Z,-0.09
2018-03-20T06:43:15.092Z,-0.04
2018-03-20T06:45:42.486Z,0.00
2018-03-20T06:48:09.875Z,0.08
2018-03-20T06:50:37.269Z,0.06
2018-03-20T06:53:04.969Z,0.02
2018-03-20T06:55:32.717Z,0.06
2018-03-20T06:58:00.114Z,0.03
2018-03-20T07:00:27.509Z,0.09
2018-03-20T07:02:54.906Z,0.18
2018-03-20T07:05:22.308Z,0.20
2018-03-20T07:07:49.694Z,0.21
2018-03-20T07:10:17.094Z,0.23
2018-03-20T07:12:44.486Z,0.32
2018-03-20T07:15:11.869Z,0.28
2018-03-20T07:17:39.270Z,0.25
2018-03-20T07:20:06.655Z,0.29
2018-03-20T07:22:34.059Z,0.39
2018-03-20T07:25:01.468Z,0.49
2018-03-20T07:27:28.846Z,0.70
2018-03-20T07:29:56.242Z,0.57
2018-03-20T07:32:23.646Z,0.57
2018-03-20T07:34:51.186Z,0.67
2018-03-20T07:37:18.575Z,0.80
2018-03-20T07:39:45.978Z,0.85
2018-03-20T07:42:13.366Z,0.94
2018-03-20T07:44:40.790Z,0.97
2018-03-20T07:47:08.186Z,1.09
2018-03-20T07:49:35.579Z,1.10
2018-03-20T07:52:02.982Z,1.21
2018-03-20T07:54:30.378Z,1.26
2018-03-20T07:56:57.786Z,1.34
2018-03-20T07:59:25.183Z,1.42
2018-03-20T08:01:52.588Z,1.38
2018-03-20T08:04:19.977Z,1.25
2018-03-20T08:06:47.378Z,1.21
2018-03-20T08:09:14.769Z,1.10
2018-03-20T08:11:42.161Z,0.92
2018-03-20T08:14:09.562Z,0.97
2018-03-20T08:16:36.950Z,0.98
2018-03-20T08:19:04.374Z,0.92
2018-03-20T08:21:31.756Z,0.95
2018-03-20T08:23:59.146Z,1.05
2018-03-20T08:26:26.553Z,1.08
2018-03-20T08:28:54.362Z,0.94
2018-03-20T08:31:21.754Z,1.17
2018-03-20T08:33:49.149Z,1.11
2018-03-20T08:36:16.550Z,1.10
2018-03-20T08:38:43.945Z,1.02
2018-03-20T08:41:11.346Z,1.03
2018-03-20T08:43:38.747Z,1.25
2018-03-20T08:46:06.146Z,1.32
2018-03-20T08:48:33.541Z,1.37
2018-03-20T08:51:00.945Z,1.38
2018-03-20T08:53:28.335Z,1.63
2018-03-20T08:55:55.730Z,1.86
2018-03-20T08:58:23.123Z,2.10
2018-03-20T09:00:50.522Z,2.23
2018-03-20T09:03:17.934Z,2.40
2018-03-20T09:05:45.348Z,2.48
2018-03-20T09:08:12.734Z,2.37
2018-03-20T09:10:40.133Z,2.52
2018-03-20T09:13:07.530Z,2.68
2018-03-20T09:15:34.936Z,2.77
2018-03-20T09:18:02.334Z,2.91
2018-03-20T09:20:29.734Z,3.18
2018-03-20T09:22:57.139Z,3.24
2018-03-20T09:25:24.554Z,3.31
2018-03-20T09:27:51.958Z,3.34
2018-03-20T09:30:19.353Z,3.40
2018-03-20T09:32:46.766Z,3.33
2018-03-20T09:35:14.166Z,3.42
2018-03-20T09:37:41.569Z,3.68
2018-03-20T09:40:08.970Z,3.96
2018-03-20T09:42:36.431Z,4.12
2018-03-20T09:45:03.778Z,4.08
2018-03-20T09:47:31.602Z,4.52
2018-03-20T09:49:58.995Z,4.76
2018-03-20T09:52:26.393Z,4.94
2018-03-20T09:54:53.789Z,5.44
2018-03-20T09:57:21.173Z,5.88
2018-03-20T09:59:48.570Z,5.63
2018-03-20T10:02:15.967Z,5.63
2018-03-20T10:04:43.358Z,5.71
2018-03-20T10:07:10.755Z,5.79
2018-03-20T10:09:38.162Z,5.97
2018-03-20T10:12:05.546Z,6.23
2018-03-20T10:14:32.938Z,6.10
2018-03-20T10:17:00.337Z,6.18
2018-03-20T10:19:27.733Z,6.09
2018-03-20T10:21:55.117Z,6.29
2018-03-20T10:24:22.791Z,6.48
2018-03-20T10:26:50.174Z,7.03
2018-03-20T10:29:17.561Z,7.23
2018-03-20T10:31:44.953Z,7.50
2018-03-20T10:34:12.349Z,7.81
2018-03-20T10:36:39.758Z,8.21
2018-03-20T10:39:07.147Z,7.69
2018-03-20T10:41:34.565Z,7.20
2018-03-20T10:44:01.970Z,6.91
2018-03-20T10:46:29.361Z,6.84
2018-03-20T10:48:56.751Z,6.69
2018-03-20T10:51:24.146Z,6.79
2018-03-20T10:53:51.534Z,7.11
2018-03-20T10:56:18.929Z,7.16
2018-03-20T10:58:46.313Z,7.89
2018-03-20T11:01:19.402Z,8.24
2018-03-20T11:03:46.798Z,8.33
2018-03-20T11:06:14.190Z,8.20
2018-03-20T11:08:41.608Z,8.33
2018-03-20T11:11:08.991Z,8.69
2018-03-20T11:13:36.389Z,8.69
2018-03-20T11:16:03.770Z,9.02
2018-03-20T11:18:31.157Z,9.58
2018-03-20T11:20:58.542Z,9.78
2018-03-20T11:23:25.937Z,9.43
2018-03-20T11:25:53.320Z,9.14
2018-03-20T11:28:20.703Z,8.74
2018-03-20T11:30:48.099Z,8.56
2018-03-20T11:33:15.474Z,8.74
2018-03-20T11:35:42.861Z,8.63
2018-03-20T11:38:10.250Z,8.68
2018-03-20T11:40:37.640Z,8.76
2018-03-20T11:43:05.019Z,8.97
2018-03-20T11:45:32.405Z,9.31
2018-03-20T11:47:59.786Z,9.57
2018-03-20T11:50:27.176Z,9.57
2018-03-20T11:52:54.558Z,9.61
2018-03-20T11:55:21.942Z,9.54
2018-03-20T11:57:49.334Z,8.99
2018-03-20T12:00:16.717Z,8.94
2018-03-20T12:02:44.102Z,8.77
2018-03-20T12:05:11.486Z,9.31
2018-03-20T12:07:50.774Z,9.60
2018-03-20T12:10:18.154Z,9.56
2018-03-20T12:12:45.545Z,9.57
2018-03-20T12:15:12.929Z,9.42
2018-03-20T12:17:40.368Z,9.55
2018-03-20T12:20:07.755Z,9.63
2018-03-20T12:22:35.137Z,9.78
2018-03-20T12:25:02.530Z,9.56
2018-03-20T12:27:29.942Z,9.37
2018-03-20T12:29:57.339Z,9.30
2018-03-20T12:32:24.714Z,9.39
2018-03-20T12:34:52.111Z,9.49
2018-03-20T12:37:19.490Z,9.42
2018-03-20T12:39:46.877Z,9.38
2018-03-20T12:42:14.271Z,9.69
2018-03-20T12:44:41.654Z,9.76
2018-03-20T12:47:09.046Z,9.83
2018-03-20T12:49:36.426Z,9.67
2018-03-20T12:52:03.807Z,9.88
2018-03-20T12:54:31.251Z,10.02
2018-03-20T12:56:58.605Z,10.02
2018-03-20T12:59:25.978Z,9.73
2018-03-20T13:01:53.366Z,9.52
2018-03-20T13:04:20.760Z,9.41
2018-03-20T13:06:48.138Z,9.44
2018-03-20T13:09:15.526Z,9.33
2018-03-20T13:11:42.910Z,9.23
2018-03-20T13:14:11.049Z,9.20
2018-03-20T13:16:38.433Z,9.17
2018-03-20T13:19:05.818Z,9.08
2018-03-20T13:21:33.190Z,9.20
2018-03-20T13:24:00.590Z,9.44
2018-03-20T13:26:27.966Z,9.65
2018-03-20T13:28:55.346Z,9.33
2018-03-20T13:31:22.762Z,9.27
2018-03-20T13:33:50.150Z,9.05
2018-03-20T13:36:17.534Z,9.10
2018-03-20T13:38:44.918Z,9.27
2018-03-20T13:41:12.315Z,9.21
2018-03-20T13:43:39.693Z,9.15
2018-03-20T13:46:07.081Z,9.20
2018-03-20T13:48:34.479Z,9.36
2018-03-20T13:51:01.866Z,9.45
2018-03-20T13:53:29.245Z,9.30
2018-03-20T13:55:56.625Z,9.20
2018-03-20T13:58:24.009Z,8.95
2018-03-20T14:00:51.389Z,8.96
2018-03-20T14:03:18.783Z,9.28
2018-03-20T14:05:46.153Z,9.51
2018-03-20T14:08:13.547Z,9.36
2018-03-20T14:10:40.928Z,9.34
2018-03-20T14:13:08.322Z,9.17
2018-03-20T14:15:35.697Z,9.13
2018-03-20T14:18:03.086Z,9.37
2018-03-20T14:20:30.531Z,9.04
2018-03-20T14:22:57.919Z,8.86
2018-03-20T14:25:25.333Z,8.96
2018-03-20T14:27:52.710Z,9.03
2018-03-20T14:30:20.137Z,9.04
2018-03-20T14:32:47.538Z,8.86
2018-03-20T14:35:14.942Z,8.73
2018-03-20T14:37:42.330Z,8.60
2018-03-20T14:40:09.718Z,8.79
2018-03-20T14:42:37.103Z,9.09
2018-03-20T14:45:04.488Z,9.20
2018-03-20T14:47:31.870Z,9.31
2018-03-20T14:49:59.250Z,9.30
2018-03-20T14:52:26.645Z,9.04
2018-03-20T14:54:54.032Z,8.88
2018-03-20T14:57:21.426Z,8.86
2018-03-20T14:59:48.837Z,8.98
2018-03-20T15:02:16.226Z,9.04
2018-03-20T15:04:43.605Z,9.07
2018-03-20T15:07:10.990Z,8.88
2018-03-20T15:09:38.379Z,8.79
2018-03-20T15:12:05.767Z,8.69
2018-03-20T15:14:33.203Z,8.57
2018-03-20T15:17:00.582Z,8.62
2018-03-20T15:19:27.970Z,8.64
2018-03-20T15:21:55.350Z,8.63
2018-03-20T15:24:22.740Z,8.55
2018-03-20T15:26:50.158Z,8.51
2018-03-20T15:29:17.573Z,8.59
2018-03-20T15:31:44.937Z,8.57
2018-03-20T15:34:12.325Z,8.52
2018-03-20T15:36:39.742Z,8.70
2018-03-20T15:39:07.140Z,8.84
2018-03-20T15:41:34.522Z,8.74
2018-03-20T15:44:01.906Z,8.61
2018-03-20T15:46:29.311Z,8.64
2018-03-20T15:48:56.732Z,8.38
2018-03-20T15:51:24.157Z,8.38
2018-03-20T15:53:51.578Z,8.40
2018-03-20T15:56:18.981Z,8.43
2018-03-20T15:58:46.358Z,8.33
2018-03-20T16:01:13.795Z,8.35
2018-03-20T16:03:41.222Z,8.28
2018-03-20T16:06:08.689Z,8.24
2018-03-20T16:08:36.078Z,8.25
2018-03-20T16:11:03.470Z,8.22
2018-03-20T16:13:30.848Z,8.18
2018-03-20T16:15:58.301Z,8.12
2018-03-20T16:18:25.713Z,8.15
2018-03-20T16:20:53.146Z,8.17
2018-03-20T16:23:20.583Z,8.16
2018-03-20T16:25:48.020Z,8.26
2018-03-20T16:28:15.390Z,8.18
2018-03-20T16:30:42.799Z,8.17
2018-03-20T16:33:10.209Z,8.17
2018-03-20T16:35:37.611Z,8.11
2018-03-20T16:38:05.038Z,7.96
2018-03-20T16:40:32.477Z,8.01
2018-03-20T16:42:59.861Z,7.95
2018-03-20T16:45:27.277Z,7.96
2018-03-20T16:47:54.726Z,7.93
2018-03-20T16:50:22.133Z,7.86
2018-03-20T16:52:49.517Z,7.87
2018-03-20T16:55:16.905Z,7.78
2018-03-20T16:57:44.300Z,7.74
2018-03-20T17:00:11.686Z,7.72
2018-03-20T17:02:39.471Z,7.68
2018-03-20T17:05:06.856Z,7.66
2018-03-20T17:07:34.229Z,7.58
2018-03-20T17:10:01.617Z,7.50
2018-03-20T17:12:28.994Z,7.42
2018-03-20T17:14:56.406Z,7.38
2018-03-20T17:17:23.791Z,7.35
2018-03-20T17:19:51.177Z,7.30
2018-03-20T17:22:18.589Z,7.27
2018-03-20T17:24:45.978Z,7.21
2018-03-20T17:27:13.362Z,7.22
2018-03-20T17:29:40.752Z,7.09
2018-03-20T17:32:08.140Z,7.08
2018-03-20T17:34:35.545Z,6.95
2018-03-20T17:37:02.926Z,6.90
2018-03-20T17:39:30.319Z,6.89
2018-03-20T17:41:57.706Z,6.87
2018-03-20T17:44:25.106Z,6.80
2018-03-20T17:46:52.495Z,6.73
2018-03-20T17:49:19.879Z,6.68
2018-03-20T17:51:47.274Z,6.64
2018-03-20T17:54:14.654Z,6.60
2018-03-20T17:56:42.057Z,6.55
2018-03-20T17:59:09.438Z,6.52
2018-03-20T18:01:36.814Z,6.44
2018-03-20T18:04:04.209Z,6.36
2018-03-20T18:06:31.608Z,6.33
2018-03-20T18:08:59.304Z,6.26
2018-03-20T18:11:26.672Z,6.25
2018-03-20T18:13:54.098Z,6.22
2018-03-20T18:16:21.484Z,6.17
2018-03-20T18:18:48.880Z,6.09
2018-03-20T18:21:16.278Z,6.01
2018-03-20T18:23:43.664Z,5.96
2018-03-20T18:26:11.069Z,5.89
2018-03-20T18:28:38.453Z,5.84
2018-03-20T18:31:05.835Z,5.83
2018-03-20T18:33:33.243Z,5.77
2018-03-20T18:36:00.634Z,5.77
2018-03-20T18:38:28.021Z,5.72
2018-03-20T18:40:55.390Z,5.69
2018-03-20T18:43:22.782Z,5.62
2018-03-20T18:45:50.171Z,5.63
2018-03-20T18:48:17.553Z,5.58
2018-03-20T18:50:44.939Z,5.56
2018-03-20T18:53:12.347Z,5.55
2018-03-20T18:55:39.721Z,5.49
2018-03-20T18:58:07.129Z,5.44
2018-03-20T19:00:34.521Z,5.38
2018-03-20T19:03:01.908Z,5.30
2018-03-20T19:05:29.286Z,5.23
2018-03-20T19:07:56.675Z,5.22
2018-03-20T19:10:24.077Z,5.20
2018-03-20T19:12:51.461Z,5.17
2018-03-20T19:15:18.846Z,5.15
2018-03-20T19:17:46.264Z,5.03
2018-03-20T19:20:13.714Z,4.97
2018-03-20T19:22:41.057Z,4.95
2018-03-20T19:25:08.441Z,4.92
2018-03-20T19:27:35.825Z,4.81
2018-03-20T19:30:03.219Z,4.81
2018-03-20T19:32:30.606Z,4.81
2018-03-20T19:34:58.021Z,4.73
2018-03-20T19:37:25.397Z,4.70
2018-03-20T19:39:52.785Z,4.67
2018-03-20T19:42:20.177Z,4.66
2018-03-20T19:44:47.567Z,4.64
2018-03-20T19:47:14.980Z,4.62
2018-03-20T19:49:42.380Z,4.53
2018-03-20T19:52:09.780Z,4.53
2018-03-20T19:54:37.170Z,4.47
2018-03-20T19:57:04.570Z,4.41
2018-03-20T19:59:31.986Z,4.37
2018-03-20T20:01:59.382Z,4.36
2018-03-20T20:04:26.781Z,4.31
2018-03-20T20:06:54.174Z,4.27
2018-03-20T20:09:21.578Z,4.23
2018-03-20T20:11:48.990Z,4.20
2018-03-20T20:14:16.397Z,4.18
2018-03-20T20:16:43.800Z,4.17
2018-03-20T20:19:11.211Z,4.15
2018-03-20T20:21:38.632Z,4.11
2018-03-20T20:24:06.036Z,4.04
2018-03-20T20:26:33.438Z,4.04
2018-03-20T20:29:00.827Z,4.02
2018-03-20T20:31:28.218Z,4.04
2018-03-20T20:33:55.614Z,3.95
2018-03-20T20:36:23.051Z,4.00
2018-03-20T20:38:50.449Z,4.00
2018-03-20T20:41:17.873Z,3.94
2018-03-20T20:43:45.294Z,3.93
2018-03-20T20:46:12.693Z,3.93
2018-03-20T20:48:40.096Z,3.92
2018-03-20T20:51:07.499Z,3.85
2018-03-20T20:53:34.896Z,3.86
2018-03-20T20:56:02.314Z,3.85
2018-03-20T20:58:29.707Z,3.82
2018-03-20T21:00:57.137Z,3.79
2018-03-20T21:03:24.538Z,3.78
2018-03-20T21:05:51.929Z,3.77
2018-03-20T21:08:19.343Z,3.77
2018-03-20T21:10:46.753Z,3.68
2018-03-20T21:13:14.150Z,3.63
2018-03-20T21:15:41.553Z,3.57
2018-03-20T21:18:08.954Z,3.54
2018-03-20T21:20:36.352Z,3.52
2018-03-20T21:23:03.762Z,3.47
2018-03-20T21:25:31.153Z,3.41
2018-03-20T21:27:58.610Z,3.42
2018-03-20T21:30:25.966Z,3.47
2018-03-20T21:32:53.358Z,3.45
2018-03-20T21:35:20.766Z,3.44
2018-03-20T21:37:48.222Z,3.28
2018-03-20T21:40:15.629Z,3.21
2018-03-20T21:42:43.059Z,3.14
2018-03-20T21:45:10.433Z,3.12
2018-03-20T21:47:37.832Z,3.16
2018-03-20T21:50:05.226Z,3.10
2018-03-20T21:52:32.626Z,3.13
2018-03-20T21:55:00.016Z,3.05
2018-03-20T21:57:27.437Z,3.01
2018-03-20T21:59:54.818Z,2.96
2018-03-20T22:02:22.230Z,2.94
2018-03-20T22:04:49.628Z,2.91
2018-03-20T22:07:17.026Z,2.90
2018-03-20T22:09:44.445Z,2.96
2018-03-20T22:12:11.839Z,2.84
2018-03-20T22:14:39.244Z,2.79
2018-03-20T22:17:06.636Z,2.76
2018-03-20T22:19:34.030Z,2.72
2018-03-20T22:22:01.438Z,2.65
2018-03-20T22:24:28.825Z,2.56
2018-03-20T22:26:56.223Z,2.55
2018-03-20T22:29:23.626Z,2.47
2018-03-20T22:31:51.022Z,2.45
2018-03-20T22:34:18.446Z,2.38
2018-03-20T22:36:45.893Z,2.33
2018-03-20T22:39:13.241Z,2.25
2018-03-20T22:41:40.682Z,2.21
2018-03-20T22:44:08.045Z,2.17
2018-03-20T22:46:35.469Z,2.13
2018-03-20T22:49:02.851Z,2.13
2018-03-20T22:51:30.246Z,2.05
2018-03-20T22:53:57.661Z,2.04
2018-03-20T22:56:25.066Z,1.99
2018-03-20T22:58:52.470Z,1.98
2018-03-20T23:01:19.862Z,1.91
2018-03-20T23:03:47.274Z,1.77
2018-03-20T23:06:14.669Z,1.71
2018-03-20T23:08:42.068Z,1.69
2018-03-20T23:11:09.474Z,1.76
2018-03-20T23:13:36.869Z,1.77
2018-03-20T23:16:04.275Z,1.76
2018-03-20T23:18:31.673Z,1.70
2018-03-20T23:20:59.085Z,1.70
2018-03-20T23:23:26.479Z,1.69
2018-03-20T23:25:53.881Z,1.54
2018-03-20T23:28:21.279Z,1.57
2018-03-20T23:30:48.678Z,1.58
2018-03-20T23:33:16.078Z,1.59
2018-03-20T23:35:43.473Z,1.48
2018-03-20T23:38:10.878Z,1.37
2018-03-20T23:40:38.281Z,1.38
2018-03-20T23:43:05.677Z,1.39
2018-03-20T23:45:33.078Z,1.40
2018-03-20T23:48:00.471Z,1.47
2018-03-20T23:50:27.892Z,1.45
2018-03-20T23:52:55.282Z,1.45
2018-03-20T23:55:22.707Z,1.42
2018-03-20T23:57:50.102Z,1.47
